createdAt,value
2018-07-03T00:01:20.822Z,61.90
2018-07-03T00:03:49.236Z,62.10
2018-07-03T00:06:17.752Z,62.00
2018-07-03T00:08:46.562Z,62.30
2018-07-03T00:11:15.281Z,62.30
2018-07-03T00:13:44.029Z,62.30
2018-07-03T00:16:17.723Z,62.30
2018-07-03T00:18:46.162Z,62.70
2018-07-03T00:21:14.582Z,62.90
2018-07-03T00:23:43.444Z,62.90
2018-07-03T00:26:11.809Z,62.80
2018-07-03T00:28:40.201Z,63.10
2018-07-03T00:31:09.232Z,62.90
2018-07-03T00:33:38.085Z,62.80
2018-07-03T00:36:07.001Z,63.00
2018-07-03T00:38:35.492Z,63.20
2018-07-03T00:41:04.294Z,63.40
2018-07-03T00:43:33.050Z,63.50
2018-07-03T00:46:01.601Z,63.80
2018-07-03T00:48:30.049Z,63.80
2018-07-03T00:50:58.559Z,64.00
2018-07-03T00:53:27.104Z,64.30
2018-07-03T00:55:55.433Z,64.30
2018-07-03T00:58:23.945Z,64.20
2018-07-03T01:00:52.332Z,64.20
2018-07-03T01:03:21.052Z,64.40
2018-07-03T01:05:49.597Z,64.30
2018-07-03T01:08:18.400Z,64.40
2018-07-03T01:10:47.114Z,64.70
2018-07-03T01:13:15.599Z,64.60
2018-07-03T01:15:44.376Z,64.30
2018-07-03T01:18:13.045Z,64.60
2018-07-03T01:20:41.467Z,64.40
2018-07-03T01:23:09.906Z,64.50
2018-07-03T01:25:38.232Z,64.30
2018-07-03T01:28:06.655Z,64.60
2018-07-03T01:30:35.400Z,64.80
2018-07-03T01:33:04.144Z,65.10
2018-07-03T01:35:32.617Z,65.00
2018-07-03T01:38:01.181Z,65.10
2018-07-03T01:42:57.837Z,65.60
2018-07-03T01:45:26.587Z,65.40
2018-07-03T01:47:55.424Z,65.60
2018-07-03T01:50:23.907Z,65.40
2018-07-03T01:52:52.697Z,65.50
2018-07-03T01:55:21.495Z,65.40
2018-07-03T01:57:50.078Z,65.70
2018-07-03T02:00:19.133Z,66.00
2018-07-03T02:02:47.672Z,66.40
2018-07-03T02:05:16.620Z,66.60
2018-07-03T02:07:45.165Z,66.60
2018-07-03T02:10:13.900Z,66.60
2018-07-03T02:12:42.544Z,66.70
2018-07-03T02:15:10.987Z,66.50
2018-07-03T02:17:39.377Z,66.50
2018-07-03T02:20:07.908Z,66.50
2018-07-03T02:22:36.223Z,66.50
2018-07-03T02:25:04.788Z,66.50
2018-07-03T02:27:33.671Z,66.70
2018-07-03T02:30:02.140Z,67.00
2018-07-03T02:32:30.813Z,66.90
2018-07-03T02:34:59.456Z,66.90
2018-07-03T02:37:28.173Z,67.00
2018-07-03T02:39:56.760Z,67.10
2018-07-03T02:42:25.678Z,67.10
2018-07-03T02:44:54.724Z,67.10
2018-07-03T02:47:23.586Z,67.00
2018-07-03T02:49:52.111Z,67.30
2018-07-03T02:52:20.491Z,67.10
2018-07-03T02:54:48.832Z,67.20
2018-07-03T02:57:17.439Z,67.20
2018-07-03T02:59:46.101Z,67.30
2018-07-03T03:02:14.429Z,67.40
2018-07-03T03:04:43.204Z,67.40
2018-07-03T03:07:11.884Z,67.20
2018-07-03T03:09:40.553Z,67.60
2018-07-03T03:12:08.937Z,67.70
2018-07-03T03:14:37.293Z,68.00
2018-07-03T03:17:05.569Z,67.90
2018-07-03T03:19:34.281Z,68.00
2018-07-03T03:22:02.690Z,68.20
2018-07-03T03:24:31.053Z,68.60
2018-07-03T03:26:59.441Z,68.50
2018-07-03T03:29:28.244Z,68.70
2018-07-03T03:31:57.007Z,69.00
2018-07-03T03:34:25.644Z,69.00
2018-07-03T03:36:54.051Z,69.20
2018-07-03T03:39:22.434Z,69.10
2018-07-03T03:41:51.008Z,69.10
2018-07-03T03:44:19.837Z,69.20
2018-07-03T03:46:48.576Z,69.20
2018-07-03T03:49:17.115Z,69.30
2018-07-03T03:51:45.797Z,69.10
2018-07-03T03:54:14.248Z,69.10
2018-07-03T03:56:43.065Z,69.30
2018-07-03T03:59:11.520Z,69.70
2018-07-03T04:01:40.376Z,69.70
2018-07-03T04:04:08.797Z,69.90
2018-07-03T04:06:37.181Z,69.90
2018-07-03T04:09:08.355Z,69.90
2018-07-03T04:11:36.724Z,70.00
2018-07-03T04:14:05.288Z,70.00
2018-07-03T04:16:33.973Z,70.40
2018-07-03T04:19:02.468Z,70.20
2018-07-03T04:21:32.976Z,70.60
2018-07-03T04:24:01.680Z,70.50
2018-07-03T04:26:31.706Z,70.30
2018-07-03T04:29:00.518Z,70.70
2018-07-03T04:31:28.974Z,70.80
2018-07-03T04:33:57.545Z,71.80
2018-07-03T04:36:25.976Z,73.00
2018-07-03T04:38:54.780Z,72.20
2018-07-03T04:41:23.186Z,72.90
2018-07-03T04:43:51.652Z,73.50
2018-07-03T04:46:20.321Z,73.70
2018-07-03T04:48:49.008Z,73.60
2018-07-03T04:51:17.472Z,73.40
2018-07-03T04:53:45.892Z,73.70
2018-07-03T04:56:14.300Z,73.60
2018-07-03T04:58:42.744Z,73.90
2018-07-03T05:01:11.189Z,74.10
2018-07-03T05:03:39.537Z,74.70
2018-07-03T05:06:08.000Z,75.10
2018-07-03T05:08:36.510Z,75.70
2018-07-03T05:11:05.004Z,75.10
2018-07-03T05:13:33.352Z,76.00
2018-07-03T05:16:01.877Z,75.90
2018-07-03T05:18:30.485Z,75.00
2018-07-03T05:20:58.896Z,74.60
2018-07-03T05:23:27.394Z,73.40
2018-07-03T05:25:55.896Z,73.50
2018-07-03T05:28:24.309Z,73.40
2018-07-03T05:30:52.729Z,73.40
2018-07-03T05:33:21.384Z,73.40
2018-07-03T05:35:50.394Z,73.60
2018-07-03T05:38:19.394Z,74.70
2018-07-03T05:40:48.146Z,74.40
2018-07-03T05:43:17.012Z,73.40
2018-07-03T05:45:45.769Z,73.80
2018-07-03T05:48:14.480Z,74.10
2018-07-03T05:50:43.364Z,73.60
2018-07-03T05:53:11.832Z,73.30
2018-07-03T05:55:40.518Z,73.60
2018-07-03T05:58:08.913Z,74.40
2018-07-03T06:00:37.345Z,75.10
2018-07-03T06:03:05.813Z,75.30
2018-07-03T06:05:34.357Z,74.70
2018-07-03T06:08:03.117Z,75.40
2018-07-03T06:10:31.700Z,75.40
2018-07-03T06:13:00.121Z,75.00
2018-07-03T06:15:28.502Z,75.00
2018-07-03T06:17:56.970Z,75.00
2018-07-03T06:20:25.896Z,74.10
2018-07-03T06:22:54.669Z,73.90
2018-07-03T06:25:23.672Z,74.60
2018-07-03T06:27:52.192Z,74.30
2018-07-03T06:30:20.643Z,74.30
2018-07-03T06:32:49.640Z,74.00
2018-07-03T06:35:18.485Z,73.80
2018-07-03T06:37:46.881Z,72.90
2018-07-03T06:40:15.375Z,72.50
2018-07-03T06:42:43.975Z,72.30
2018-07-03T06:45:12.419Z,72.20
2018-07-03T06:47:41.229Z,71.40
2018-07-03T06:50:09.833Z,71.80
2018-07-03T06:52:38.302Z,70.90
2018-07-03T06:55:06.923Z,71.00
2018-07-03T06:57:35.741Z,71.40
2018-07-03T07:00:05.019Z,71.70
2018-07-03T07:02:33.596Z,70.60
2018-07-03T07:05:02.400Z,70.00
2018-07-03T07:07:31.151Z,71.00
2018-07-03T07:09:59.635Z,70.80
2018-07-03T07:12:28.319Z,70.50
2018-07-03T07:15:11.358Z,70.90
2018-07-03T07:17:39.845Z,70.50
2018-07-03T07:20:08.248Z,71.10
2018-07-03T07:22:37.001Z,70.30
2018-07-03T07:25:05.700Z,70.80
2018-07-03T07:27:34.168Z,71.20
2018-07-03T07:30:02.964Z,71.70
2018-07-03T07:32:31.443Z,70.90
2018-07-03T07:37:28.820Z,71.30
2018-07-03T07:39:57.355Z,70.60
2018-07-03T07:42:26.014Z,71.40
2018-07-03T07:44:54.531Z,71.40
2018-07-03T07:47:22.916Z,71.40
2018-07-03T07:49:51.290Z,71.10
2018-07-03T07:52:19.930Z,70.50
2018-07-03T07:54:48.336Z,70.50
2018-07-03T07:57:17.028Z,71.50
2018-07-03T07:59:45.771Z,71.30
2018-07-03T08:02:14.145Z,70.90
2018-07-03T08:04:42.864Z,70.90
2018-07-03T08:07:11.626Z,70.70
2018-07-03T08:09:40.105Z,70.10
2018-07-03T08:12:08.566Z,70.10
2018-07-03T08:15:20.256Z,70.60
2018-07-03T08:17:49.013Z,70.20
2018-07-03T08:20:17.599Z,70.70
2018-07-03T08:22:46.237Z,70.50
2018-07-03T08:25:15.163Z,70.80
2018-07-03T08:27:43.885Z,71.50
2018-07-03T08:30:12.412Z,70.80
2018-07-03T08:32:41.351Z,70.80
2018-07-03T08:35:09.804Z,69.40
2018-07-03T08:37:38.605Z,69.30
2018-07-03T08:40:07.885Z,68.90
2018-07-03T08:42:37.127Z,69.90
2018-07-03T08:45:06.311Z,70.40
2018-07-03T08:47:34.818Z,71.60
2018-07-03T08:50:03.518Z,71.30
2018-07-03T08:52:32.297Z,69.40
2018-07-03T08:55:00.962Z,69.50
2018-07-03T08:57:29.720Z,70.80
2018-07-03T08:59:58.580Z,68.40
2018-07-03T09:02:27.014Z,68.30
2018-07-03T09:04:55.815Z,68.60
2018-07-03T09:07:24.320Z,68.90
2018-07-03T09:09:53.084Z,68.90
2018-07-03T09:12:21.628Z,68.90
2018-07-03T09:15:21.139Z,67.60
2018-07-03T09:17:49.881Z,67.00
2018-07-03T09:20:18.309Z,65.00
2018-07-03T09:22:46.739Z,65.30
2018-07-03T09:25:15.422Z,64.90
2018-07-03T09:27:43.811Z,66.40
2018-07-03T09:30:12.602Z,65.80
2018-07-03T09:32:41.211Z,65.80
2018-07-03T09:35:10.005Z,65.20
2018-07-03T09:37:38.868Z,65.60
2018-07-03T09:40:07.229Z,66.00
2018-07-03T09:42:35.682Z,66.40
2018-07-03T09:45:05.356Z,66.30
2018-07-03T09:47:33.841Z,67.70
2018-07-03T09:50:02.721Z,66.30
2018-07-03T09:52:31.426Z,67.10
2018-07-03T09:55:00.249Z,64.00
2018-07-03T09:57:28.641Z,63.70
2018-07-03T09:59:56.976Z,63.50
2018-07-03T10:02:25.345Z,63.90
2018-07-03T10:04:54.027Z,62.50
2018-07-03T10:07:22.573Z,64.10
2018-07-03T10:09:51.005Z,64.00
2018-07-03T10:12:19.931Z,62.20
2018-07-03T10:15:24.919Z,62.10
2018-07-03T10:17:53.516Z,61.50
2018-07-03T10:20:22.286Z,61.70
2018-07-03T10:22:51.122Z,61.00
2018-07-03T10:25:19.620Z,60.20
2018-07-03T10:27:48.297Z,61.70
2018-07-03T10:30:16.987Z,61.50
2018-07-03T10:32:45.441Z,60.90
2018-07-03T10:35:14.180Z,60.50
2018-07-03T10:37:42.715Z,60.40
2018-07-03T10:40:11.217Z,60.40
2018-07-03T10:42:39.569Z,61.00
2018-07-03T10:45:08.473Z,62.90
2018-07-03T10:47:37.127Z,63.20
2018-07-03T10:50:05.866Z,63.70
2018-07-03T10:52:34.262Z,62.30
2018-07-03T10:55:02.823Z,63.40
2018-07-03T10:57:31.364Z,63.80
2018-07-03T11:00:00.196Z,63.30
2018-07-03T11:02:29.050Z,61.20
2018-07-03T11:04:57.857Z,61.10
2018-07-03T11:07:26.409Z,61.70
2018-07-03T11:09:54.912Z,63.50
2018-07-03T11:12:23.718Z,60.80
2018-07-03T11:18:04.028Z,60.70
2018-07-03T11:20:32.608Z,61.30
2018-07-03T11:23:01.005Z,60.90
2018-07-03T11:25:29.711Z,59.80
2018-07-03T11:27:58.169Z,59.00
2018-07-03T11:30:27.679Z,59.80
2018-07-03T11:32:56.269Z,59.10
2018-07-03T11:35:24.577Z,58.90
2018-07-03T11:37:53.116Z,59.60
2018-07-03T11:40:21.736Z,59.50
2018-07-03T11:42:50.378Z,59.60
2018-07-03T11:45:18.925Z,59.70
2018-07-03T11:47:47.313Z,59.50
2018-07-03T11:50:16.104Z,59.10
2018-07-03T11:52:44.508Z,59.90
2018-07-03T11:55:13.014Z,58.60
2018-07-03T11:57:41.819Z,58.00
2018-07-03T12:00:10.904Z,58.60
2018-07-03T12:02:39.404Z,58.20
2018-07-03T12:05:07.809Z,57.80
2018-07-03T12:07:36.944Z,58.40
2018-07-03T12:10:05.964Z,57.70
2018-07-03T12:12:34.760Z,58.40
2018-07-03T12:15:46.212Z,58.20
2018-07-03T12:18:20.054Z,58.50
2018-07-03T12:20:48.474Z,57.40
2018-07-03T12:23:17.104Z,58.30
2018-07-03T12:25:46.133Z,57.60
2018-07-03T12:28:15.017Z,57.30
2018-07-03T12:30:43.599Z,57.10
2018-07-03T12:33:12.300Z,57.00
2018-07-03T12:35:40.672Z,56.90
2018-07-03T12:38:09.064Z,58.00
2018-07-03T12:40:38.031Z,56.60
2018-07-03T12:43:06.748Z,57.30
2018-07-03T12:45:35.445Z,57.90
2018-07-03T12:48:04.183Z,57.70
2018-07-03T12:50:32.915Z,57.20
2018-07-03T12:53:01.485Z,57.40
2018-07-03T12:55:30.044Z,57.60
2018-07-03T12:57:58.620Z,57.00
2018-07-03T13:00:27.810Z,57.50
2018-07-03T13:02:56.150Z,57.60
2018-07-03T13:05:25.350Z,57.00
2018-07-03T13:07:53.693Z,56.70
2018-07-03T13:10:22.841Z,56.80
2018-07-03T13:12:51.693Z,56.40
2018-07-03T13:18:39.553Z,56.20
2018-07-03T13:21:07.991Z,57.30
2018-07-03T13:23:36.848Z,57.10
2018-07-03T13:26:05.982Z,57.00
2018-07-03T13:28:34.458Z,56.00
2018-07-03T13:31:02.854Z,56.30
2018-07-03T13:33:31.800Z,56.60
2018-07-03T13:36:00.646Z,56.40
2018-07-03T13:38:29.690Z,56.80
2018-07-03T13:40:58.377Z,57.10
2018-07-03T13:43:26.658Z,56.50
2018-07-03T13:45:55.295Z,56.30
2018-07-03T13:48:23.708Z,56.20
2018-07-03T13:50:52.136Z,55.70
2018-07-03T13:53:20.691Z,54.70
2018-07-03T13:55:49.098Z,55.00
2018-07-03T13:58:17.595Z,55.40
2018-07-03T14:03:14.408Z,54.80
2018-07-03T14:05:43.214Z,55.60
2018-07-03T14:08:12.028Z,55.60
2018-07-03T14:10:40.461Z,55.50
2018-07-03T14:13:08.931Z,55.50
2018-07-03T14:18:58.901Z,56.70
2018-07-03T14:21:27.362Z,55.30
2018-07-03T14:23:55.892Z,55.60
2018-07-03T14:26:24.482Z,54.50
2018-07-03T14:28:52.938Z,54.40
2018-07-03T14:31:21.379Z,54.90
2018-07-03T14:33:49.845Z,54.60
2018-07-03T14:36:18.705Z,55.30
2018-07-03T14:38:47.569Z,54.70
2018-07-03T14:41:16.291Z,55.70
2018-07-03T14:43:44.707Z,54.30
2018-07-03T14:46:13.372Z,54.70
2018-07-03T14:51:10.803Z,54.90
2018-07-03T14:53:39.502Z,54.70
2018-07-03T14:56:07.969Z,54.80
2018-07-03T14:58:36.340Z,54.80
2018-07-03T15:01:05.083Z,54.50
2018-07-03T15:03:33.548Z,55.40
2018-07-03T15:06:02.264Z,55.90
2018-07-03T15:08:31.112Z,54.90
2018-07-03T15:10:59.774Z,55.90
2018-07-03T15:13:28.528Z,56.30
2018-07-03T15:19:19.224Z,55.10
2018-07-03T15:21:47.579Z,57.10
2018-07-03T15:24:16.461Z,57.00
2018-07-03T15:26:45.095Z,56.40
2018-07-03T15:29:13.885Z,55.90
2018-07-03T15:31:42.555Z,56.30
2018-07-03T15:34:11.060Z,57.20
2018-07-03T15:36:39.576Z,57.20
2018-07-03T15:39:11.149Z,57.00
2018-07-03T15:41:40.023Z,56.90
2018-07-03T15:44:19.821Z,57.10
2018-07-03T15:46:48.573Z,57.10
2018-07-03T15:49:17.504Z,57.50
2018-07-03T15:51:46.905Z,57.10
2018-07-03T15:54:15.483Z,56.60
2018-07-03T15:56:44.213Z,56.90
2018-07-03T15:59:12.878Z,56.80
2018-07-03T16:01:41.537Z,56.50
2018-07-03T16:05:23.463Z,56.10
2018-07-03T16:07:58.381Z,55.60
2018-07-03T16:10:27.376Z,55.10
2018-07-03T16:12:56.239Z,55.40
2018-07-03T16:19:03.384Z,56.30
2018-07-03T16:21:31.859Z,55.60
2018-07-03T16:24:00.261Z,55.30
2018-07-03T16:26:28.954Z,55.00
2018-07-03T16:28:57.496Z,54.70
2018-07-03T16:31:25.990Z,54.80
2018-07-03T16:33:55.428Z,55.00
2018-07-03T16:36:24.421Z,55.80
2018-07-03T16:38:52.985Z,55.80
2018-07-03T16:41:21.489Z,55.90
2018-07-03T16:43:50.384Z,55.60
2018-07-03T16:46:18.895Z,56.10
2018-07-03T16:48:47.534Z,56.10
2018-07-03T16:51:16.550Z,56.40
2018-07-03T16:53:45.073Z,57.10
2018-07-03T16:56:13.845Z,56.20
2018-07-03T16:58:42.275Z,56.20
2018-07-03T17:01:10.655Z,56.50
2018-07-03T17:03:39.466Z,56.70
2018-07-03T17:06:08.003Z,56.20
2018-07-03T17:08:36.692Z,56.10
2018-07-03T17:11:05.375Z,56.70
2018-07-03T17:19:38.711Z,57.60
2018-07-03T17:22:07.496Z,56.60
2018-07-03T17:24:36.189Z,57.10
2018-07-03T17:27:05.051Z,57.50
2018-07-03T17:29:34.183Z,57.40
2018-07-03T17:32:02.768Z,57.70
2018-07-03T17:34:31.198Z,57.90
2018-07-03T17:36:59.656Z,58.10
2018-07-03T17:39:39.339Z,58.40
2018-07-03T17:42:18.895Z,58.80
2018-07-03T17:45:59.900Z,59.20
2018-07-03T17:48:28.680Z,59.50
2018-07-03T17:50:57.336Z,60.10
2018-07-03T17:53:25.918Z,60.20
2018-07-03T17:55:54.504Z,60.30
2018-07-03T17:58:24.373Z,61.00
2018-07-03T18:00:53.454Z,61.20
2018-07-03T18:03:22.158Z,61.20
2018-07-03T18:05:51.778Z,61.30
2018-07-03T18:08:20.722Z,61.50
2018-07-03T18:10:49.681Z,61.50
2018-07-03T18:13:19.496Z,61.70
2018-07-03T18:19:15.265Z,62.10
2018-07-03T18:21:44.461Z,62.50
2018-07-03T18:24:13.718Z,62.70
2018-07-03T18:26:43.651Z,62.90
2018-07-03T18:29:12.867Z,63.30
2018-07-03T18:31:42.119Z,63.40
2018-07-03T18:34:12.117Z,63.60
2018-07-03T18:36:41.344Z,63.70
2018-07-03T18:39:11.422Z,63.80
2018-07-03T18:41:41.124Z,64.10
2018-07-03T18:44:10.376Z,64.40
2018-07-03T18:46:39.693Z,64.50
2018-07-03T18:49:08.916Z,64.70
2018-07-03T18:51:38.144Z,65.00
2018-07-03T18:54:07.423Z,65.00
2018-07-03T18:56:37.193Z,65.20
2018-07-03T18:59:06.389Z,65.20
2018-07-03T19:01:36.885Z,65.40
2018-07-03T19:04:06.217Z,65.50
2018-07-03T19:06:36.627Z,65.60
2018-07-03T19:09:08.765Z,65.90
2018-07-03T19:14:07.643Z,66.40
2018-07-03T19:17:49.933Z,66.40
2018-07-03T19:20:19.085Z,66.50
2018-07-03T19:22:49.587Z,66.90
2018-07-03T19:25:19.729Z,67.20
2018-07-03T19:27:50.180Z,67.40
2018-07-03T19:30:20.252Z,67.80
2018-07-03T19:32:50.089Z,67.90
2018-07-03T19:35:20.186Z,68.10
2018-07-03T19:37:49.276Z,68.30
2018-07-03T19:40:19.471Z,68.70
2018-07-03T19:43:27.154Z,68.70
2018-07-03T19:45:57.015Z,68.60
2018-07-03T19:48:26.337Z,68.60
2018-07-03T19:50:55.821Z,68.70
2018-07-03T19:53:25.243Z,69.00
2018-07-03T19:55:57.129Z,68.80
2018-07-03T19:58:27.048Z,69.00
2018-07-03T20:00:56.819Z,68.80
2018-07-03T20:03:27.806Z,68.70
2018-07-03T20:05:58.105Z,68.60
2018-07-03T20:08:27.391Z,68.80
2018-07-03T20:10:56.745Z,69.00
2018-07-03T20:13:25.990Z,69.20
2018-07-03T20:20:13.111Z,69.30
2018-07-03T20:22:42.360Z,70.20
2018-07-03T20:25:12.325Z,70.60
2018-07-03T20:31:13.972Z,70.40
2018-07-03T20:33:43.421Z,70.00
2018-07-03T20:36:12.609Z,70.00
2018-07-03T20:38:42.074Z,70.00
2018-07-03T20:41:11.833Z,70.20
2018-07-03T20:43:42.180Z,69.90
2018-07-03T20:46:12.220Z,69.80
2018-07-03T20:48:43.109Z,69.80
2018-07-03T20:51:12.997Z,69.80
2018-07-03T20:53:42.797Z,70.40
2018-07-03T20:56:12.110Z,70.40
2018-07-03T20:58:41.434Z,70.80
2018-07-03T21:01:10.667Z,71.50
2018-07-03T21:03:39.972Z,72.50
2018-07-03T21:06:09.818Z,71.60
2018-07-03T21:08:39.054Z,71.50
2018-07-03T21:11:09.070Z,71.30
2018-07-03T21:13:39.184Z,71.50
2018-07-03T21:19:28.074Z,71.60
2018-07-03T21:21:57.841Z,71.20
2018-07-03T21:24:26.861Z,70.80
2018-07-03T21:26:55.847Z,70.80
2018-07-03T21:29:24.467Z,70.70
2018-07-03T21:31:53.408Z,70.70
2018-07-03T21:34:22.092Z,70.60
2018-07-03T21:36:50.552Z,70.50
2018-07-03T21:39:18.977Z,70.40
2018-07-03T21:41:47.558Z,70.20
2018-07-03T21:44:16.270Z,70.40
2018-07-03T21:46:44.728Z,70.50
2018-07-03T21:49:13.756Z,70.60
2018-07-03T21:51:42.760Z,70.60
2018-07-03T21:54:11.212Z,70.60
2018-07-03T21:56:40.067Z,70.50
2018-07-03T21:59:08.733Z,70.60
2018-07-03T22:01:38.753Z,70.70
2018-07-03T22:04:07.168Z,70.60
2018-07-03T22:06:37.157Z,70.80
2018-07-03T22:09:08.588Z,71.10
2018-07-03T22:11:37.683Z,71.00
2018-07-03T22:14:06.259Z,71.10
2018-07-03T22:16:36.758Z,71.10
2018-07-03T22:19:05.695Z,71.20
2018-07-03T22:21:35.715Z,71.50
2018-07-03T22:24:04.273Z,71.50
2018-07-03T22:26:34.656Z,71.40
2018-07-03T22:29:03.267Z,71.40
2018-07-03T22:31:31.691Z,71.70
2018-07-03T22:34:00.116Z,71.90
2018-07-03T22:36:28.525Z,72.10
2018-07-03T22:38:57.459Z,72.20
2018-07-03T22:41:25.909Z,72.20
2018-07-03T22:43:54.336Z,72.10
2018-07-03T22:46:22.724Z,72.10
2018-07-03T22:48:51.168Z,72.00
2018-07-03T22:51:19.666Z,72.10
2018-07-03T22:53:48.520Z,72.10
2018-07-03T22:56:17.378Z,72.00
2018-07-03T22:58:45.955Z,72.10
2018-07-03T23:01:14.528Z,72.40
2018-07-03T23:03:42.909Z,72.50
2018-07-03T23:06:11.656Z,72.50
2018-07-03T23:08:40.408Z,72.70
2018-07-03T23:11:08.864Z,72.80
2018-07-03T23:13:37.637Z,72.90
2018-07-03T23:16:05.978Z,73.10
2018-07-03T23:21:03.394Z,73.20
2018-07-03T23:23:31.822Z,73.30
2018-07-03T23:26:00.285Z,73.50
2018-07-03T23:28:29.119Z,73.60
2018-07-03T23:30:57.556Z,73.60
2018-07-03T23:33:26.104Z,73.80
2018-07-03T23:35:54.664Z,73.90
2018-07-03T23:38:23.226Z,73.90
2018-07-03T23:40:51.711Z,74.00
2018-07-03T23:43:20.681Z,73.90
2018-07-03T23:45:57.517Z,74.10
2018-07-03T23:48:36.820Z,74.30
2018-07-03T23:51:17.280Z,74.60
2018-07-03T23:53:56.406Z,74.90
2018-07-03T23:56:37.448Z,75.10
2018-07-03T23:59:16.861Z,75.20
